sensor_id;sensor_type;location;lat;lon;timestamp;pressure;altitude;pressure_sealevel;temperature;humidity
55733;BME280;41637;52.364;9.910;2023-05-24T00:01:54;101431.37;;;7.73;83.96
55733;BME280;41637;52.364;9.910;2023-05-24T00:04:22;101430.74;;;7.74;84.13
55733;BME280;41637;52.364;9.910;2023-05-24T00:06:51;101427.65;;;7.78;84.16
55733;BME280;41637;52.364;9.910;2023-05-24T00:09:20;101427.66;;;7.80;83.96
55733;BME280;41637;52.364;9.910;2023-05-24T00:11:47;101427.30;;;7.80;84.30
55733;BME280;41637;52.364;9.910;2023-05-24T00:14:13;101424.21;;;7.79;83.89
55733;BME280;41637;52.364;9.910;2023-05-24T00:16:40;101424.13;;;7.76;84.63
55733;BME280;41637;52.364;9.910;2023-05-24T00:19:07;101424.79;;;7.72;84.81
55733;BME280;41637;52.364;9.910;2023-05-24T00:21:37;101426.26;;;7.70;84.61
55733;BME280;41637;52.364;9.910;2023-05-24T00:24:03;101425.36;;;7.66;85.40
55733;BME280;41637;52.364;9.910;2023-05-24T00:26:30;101423.05;;;7.62;85.74
55733;BME280;41637;52.364;9.910;2023-05-24T00:28:57;101423.35;;;7.57;86.18
55733;BME280;41637;52.364;9.910;2023-05-24T00:31:23;101417.40;;;7.51;86.38
55733;BME280;41637;52.364;9.910;2023-05-24T00:33:50;101423.11;;;7.48;86.92
55733;BME280;41637;52.364;9.910;2023-05-24T00:36:16;101419.33;;;7.43;87.31
55733;BME280;41637;52.364;9.910;2023-05-24T00:38:43;101417.95;;;7.41;87.19
55733;BME280;41637;52.364;9.910;2023-05-24T00:41:10;101417.45;;;7.39;87.10
55733;BME280;41637;52.364;9.910;2023-05-24T00:43:36;101412.15;;;7.36;87.47
55733;BME280;41637;52.364;9.910;2023-05-24T00:49:06;101412.17;;;7.28;88.29
55733;BME280;41637;52.364;9.910;2023-05-24T00:51:33;101420.50;;;7.26;88.64
55733;BME280;41637;52.364;9.910;2023-05-24T00:54:01;101416.88;;;7.25;88.44
55733;BME280;41637;52.364;9.910;2023-05-24T00:56:28;101411.45;;;7.25;88.52
55733;BME280;41637;52.364;9.910;2023-05-24T00:58:56;101412.05;;;7.24;88.62
55733;BME280;41637;52.364;9.910;2023-05-24T01:01:23;101409.60;;;7.23;88.54
55733;BME280;41637;52.364;9.910;2023-05-24T01:03:54;101409.84;;;7.21;89.20
55733;BME280;41637;52.364;9.910;2023-05-24T01:06:22;101409.73;;;7.20;89.73
55733;BME280;41637;52.364;9.910;2023-05-24T01:09:12;101409.92;;;7.22;89.63
55733;BME280;41637;52.364;9.910;2023-05-24T01:12:06;101409.52;;;7.24;89.65
55733;BME280;41637;52.364;9.910;2023-05-24T01:15:10;101405.98;;;7.28;89.62
55733;BME280;41637;52.364;9.910;2023-05-24T01:17:48;101405.48;;;7.30;89.89
55733;BME280;41637;52.364;9.910;2023-05-24T01:20:18;101400.65;;;7.33;89.75
55733;BME280;41637;52.364;9.910;2023-05-24T01:28:43;101392.67;;;7.30;89.49
55733;BME280;41637;52.364;9.910;2023-05-24T01:31:11;101393.33;;;7.30;89.38
55733;BME280;41637;52.364;9.910;2023-05-24T01:33:42;101396.66;;;7.28;89.74
55733;BME280;41637;52.364;9.910;2023-05-24T01:36:10;101392.71;;;7.23;89.63
55733;BME280;41637;52.364;9.910;2023-05-24T01:38:37;101391.98;;;7.22;89.67
55733;BME280;41637;52.364;9.910;2023-05-24T01:41:09;101388.15;;;7.17;89.78
55733;BME280;41637;52.364;9.910;2023-05-24T01:43:51;101390.34;;;7.12;90.18
55733;BME280;41637;52.364;9.910;2023-05-24T01:46:28;101389.35;;;7.08;90.52
55733;BME280;41637;52.364;9.910;2023-05-24T01:52:05;101385.95;;;6.96;91.13
55733;BME280;41637;52.364;9.910;2023-05-24T01:54:42;101384.85;;;6.92;91.12
55733;BME280;41637;52.364;9.910;2023-05-24T01:57:10;101382.05;;;6.90;91.34
55733;BME280;41637;52.364;9.910;2023-05-24T01:59:39;101380.96;;;6.89;91.81
55733;BME280;41637;52.364;9.910;2023-05-24T02:02:07;101377.34;;;6.88;91.68
55733;BME280;41637;52.364;9.910;2023-05-24T02:04:34;101374.45;;;6.87;92.07
55733;BME280;41637;52.364;9.910;2023-05-24T02:07:00;101376.11;;;6.86;92.31
55733;BME280;41637;52.364;9.910;2023-05-24T02:09:27;101374.98;;;6.85;93.08
55733;BME280;41637;52.364;9.910;2023-05-24T02:11:53;101372.13;;;6.87;92.98
55733;BME280;41637;52.364;9.910;2023-05-24T02:14:20;101367.52;;;6.88;93.51
55733;BME280;41637;52.364;9.910;2023-05-24T02:16:47;101365.21;;;6.90;93.95
55733;BME280;41637;52.364;9.910;2023-05-24T02:19:16;101367.15;;;6.92;93.94
55733;BME280;41637;52.364;9.910;2023-05-24T02:21:43;101366.17;;;6.95;93.75
55733;BME280;41637;52.364;9.910;2023-05-24T02:24:09;101365.52;;;6.97;93.62
55733;BME280;41637;52.364;9.910;2023-05-24T02:26:40;101363.11;;;6.98;93.80
55733;BME280;41637;52.364;9.910;2023-05-24T02:29:06;101360.42;;;6.99;94.42
55733;BME280;41637;52.364;9.910;2023-05-24T02:31:33;101355.72;;;7.00;94.12
55733;BME280;41637;52.364;9.910;2023-05-24T02:33:59;101352.73;;;7.00;94.26
55733;BME280;41637;52.364;9.910;2023-05-24T02:36:26;101349.51;;;7.01;94.28
55733;BME280;41637;52.364;9.910;2023-05-24T02:38:53;101345.79;;;7.01;94.33
55733;BME280;41637;52.364;9.910;2023-05-24T02:41:19;101346.01;;;7.01;94.56
55733;BME280;41637;52.364;9.910;2023-05-24T02:43:47;101345.56;;;7.00;94.81
55733;BME280;41637;52.364;9.910;2023-05-24T02:46:14;101341.20;;;7.01;94.82
55733;BME280;41637;52.364;9.910;2023-05-24T02:48:40;101344.31;;;7.02;95.01
55733;BME280;41637;52.364;9.910;2023-05-24T02:51:07;101349.60;;;7.04;94.98
55733;BME280;41637;52.364;9.910;2023-05-24T02:53:33;101344.55;;;7.05;95.13
55733;BME280;41637;52.364;9.910;2023-05-24T02:56:00;101348.16;;;7.08;95.16
55733;BME280;41637;52.364;9.910;2023-05-24T02:58:26;101352.38;;;7.08;95.74
55733;BME280;41637;52.364;9.910;2023-05-24T03:00:55;101351.19;;;7.10;95.79
55733;BME280;41637;52.364;9.910;2023-05-24T03:03:22;101351.84;;;7.12;95.62
55733;BME280;41637;52.364;9.910;2023-05-24T03:05:49;101354.09;;;7.15;95.41
55733;BME280;41637;52.364;9.910;2023-05-24T03:08:15;101355.01;;;7.16;95.53
55733;BME280;41637;52.364;9.910;2023-05-24T03:10:42;101358.84;;;7.19;95.49
55733;BME280;41637;52.364;9.910;2023-05-24T03:13:09;101354.77;;;7.19;95.74
55733;BME280;41637;52.364;9.910;2023-05-24T03:15:36;101353.42;;;7.18;95.90
55733;BME280;41637;52.364;9.910;2023-05-24T03:18:02;101356.34;;;7.19;95.84
55733;BME280;41637;52.364;9.910;2023-05-24T03:20:29;101351.13;;;7.18;96.03
55733;BME280;41637;52.364;9.910;2023-05-24T03:22:56;101356.12;;;7.18;96.16
55733;BME280;41637;52.364;9.910;2023-05-24T03:25:23;101357.95;;;7.19;96.19
55733;BME280;41637;52.364;9.910;2023-05-24T03:27:49;101359.78;;;7.20;96.20
55733;BME280;41637;52.364;9.910;2023-05-24T03:30:16;101359.54;;;7.21;96.43
55733;BME280;41637;52.364;9.910;2023-05-24T03:32:42;101357.48;;;7.24;96.21
55733;BME280;41637;52.364;9.910;2023-05-24T03:35:09;101355.08;;;7.27;96.02
55733;BME280;41637;52.364;9.910;2023-05-24T03:37:37;101350.91;;;7.30;95.99
55733;BME280;41637;52.364;9.910;2023-05-24T03:40:04;101353.02;;;7.34;95.62
55733;BME280;41637;52.364;9.910;2023-05-24T03:42:31;101359.64;;;7.37;95.41
55733;BME280;41637;52.364;9.910;2023-05-24T03:44:58;101361.89;;;7.40;95.40
55733;BME280;41637;52.364;9.910;2023-05-24T03:47:25;101368.21;;;7.42;95.18
55733;BME280;41637;52.364;9.910;2023-05-24T03:49:51;101368.98;;;7.43;95.27
55733;BME280;41637;52.364;9.910;2023-05-24T03:52:18;101369.29;;;7.45;95.47
55733;BME280;41637;52.364;9.910;2023-05-24T03:54:44;101369.52;;;7.49;95.02
55733;BME280;41637;52.364;9.910;2023-05-24T03:57:11;101367.11;;;7.54;94.84
55733;BME280;41637;52.364;9.910;2023-05-24T03:59:38;101367.27;;;7.58;94.79
55733;BME280;41637;52.364;9.910;2023-05-24T04:02:06;101375.05;;;7.62;94.56
55733;BME280;41637;52.364;9.910;2023-05-24T04:04:33;101376.13;;;7.61;94.66
55733;BME280;41637;52.364;9.910;2023-05-24T04:06:59;101367.86;;;7.67;94.73
55733;BME280;41637;52.364;9.910;2023-05-24T04:09:26;101372.86;;;7.72;94.64
55733;BME280;41637;52.364;9.910;2023-05-24T04:11:52;101377.50;;;7.77;94.52
55733;BME280;41637;52.364;9.910;2023-05-24T04:14:19;101379.38;;;7.82;94.20
55733;BME280;41637;52.364;9.910;2023-05-24T04:16:45;101377.16;;;7.89;94.08
55733;BME280;41637;52.364;9.910;2023-05-24T04:19:12;101382.80;;;7.93;93.51
55733;BME280;41637;52.364;9.910;2023-05-24T04:21:39;101376.65;;;7.98;93.53
55733;BME280;41637;52.364;9.910;2023-05-24T04:24:06;101379.25;;;8.02;93.08
55733;BME280;41637;52.364;9.910;2023-05-24T04:26:33;101377.18;;;8.06;92.63
55733;BME280;41637;52.364;9.910;2023-05-24T04:28:59;101379.18;;;8.09;92.72
55733;BME280;41637;52.364;9.910;2023-05-24T04:31:27;101380.15;;;8.11;92.39
55733;BME280;41637;52.364;9.910;2023-05-24T04:33:56;101378.87;;;8.14;92.27
55733;BME280;41637;52.364;9.910;2023-05-24T04:36:24;101385.41;;;8.18;92.28
55733;BME280;41637;52.364;9.910;2023-05-24T04:38:51;101385.38;;;8.26;92.09
55733;BME280;41637;52.364;9.910;2023-05-24T04:41:22;101382.98;;;8.36;91.92
55733;BME280;41637;52.364;9.910;2023-05-24T04:43:49;101382.38;;;8.47;91.70
55733;BME280;41637;52.364;9.910;2023-05-24T04:46:16;101381.13;;;8.57;90.89
55733;BME280;41637;52.364;9.910;2023-05-24T04:48:42;101384.94;;;8.63;90.36
55733;BME280;41637;52.364;9.910;2023-05-24T04:51:09;101385.54;;;8.71;89.97
55733;BME280;41637;52.364;9.910;2023-05-24T04:53:36;101372.48;;;8.79;89.61
55733;BME280;41637;52.364;9.910;2023-05-24T04:56:03;101371.39;;;8.85;89.41
55733;BME280;41637;52.364;9.910;2023-05-24T04:58:30;101372.98;;;8.88;89.14
55733;BME280;41637;52.364;9.910;2023-05-24T05:00:56;101374.61;;;8.93;88.86
55733;BME280;41637;52.364;9.910;2023-05-24T05:03:26;101375.02;;;8.96;88.70
55733;BME280;41637;52.364;9.910;2023-05-24T05:05:52;101377.95;;;8.97;88.33
55733;BME280;41637;52.364;9.910;2023-05-24T05:08:19;101375.30;;;9.01;88.49
55733;BME280;41637;52.364;9.910;2023-05-24T05:10:48;101376.18;;;9.01;88.04
55733;BME280;41637;52.364;9.910;2023-05-24T05:13:14;101375.81;;;8.97;87.89
55733;BME280;41637;52.364;9.910;2023-05-24T05:15:41;101372.13;;;8.94;88.07
55733;BME280;41637;52.364;9.910;2023-05-24T05:18:08;101374.39;;;8.97;88.47
55733;BME280;41637;52.364;9.910;2023-05-24T05:20:35;101376.83;;;9.11;88.46
55733;BME280;41637;52.364;9.910;2023-05-24T05:23:01;101372.98;;;9.20;87.77
55733;BME280;41637;52.364;9.910;2023-05-24T05:25:28;101373.20;;;9.28;87.67
55733;BME280;41637;52.364;9.910;2023-05-24T05:27:56;101379.22;;;9.37;87.34
55733;BME280;41637;52.364;9.910;2023-05-24T05:30:22;101381.52;;;9.39;86.39
55733;BME280;41637;52.364;9.910;2023-05-24T05:32:49;101387.63;;;9.44;86.23
55733;BME280;41637;52.364;9.910;2023-05-24T05:35:16;101384.06;;;9.53;85.78
55733;BME280;41637;52.364;9.910;2023-05-24T05:37:42;101387.65;;;9.61;85.20
55733;BME280;41637;52.364;9.910;2023-05-24T05:40:09;101387.25;;;9.67;84.49
55733;BME280;41637;52.364;9.910;2023-05-24T05:42:36;101392.70;;;9.76;83.75
55733;BME280;41637;52.364;9.910;2023-05-24T05:45:03;101387.46;;;9.84;83.95
55733;BME280;41637;52.364;9.910;2023-05-24T05:47:29;101385.56;;;9.95;83.68
55733;BME280;41637;52.364;9.910;2023-05-24T05:49:56;101384.45;;;10.11;83.24
55733;BME280;41637;52.364;9.910;2023-05-24T05:52:22;101391.52;;;10.25;82.57
55733;BME280;41637;52.364;9.910;2023-05-24T05:54:49;101389.44;;;10.39;81.53
55733;BME280;41637;52.364;9.910;2023-05-24T05:57:16;101395.94;;;10.48;81.02
55733;BME280;41637;52.364;9.910;2023-05-24T05:59:45;101395.77;;;10.55;80.87
55733;BME280;41637;52.364;9.910;2023-05-24T06:02:11;101404.15;;;10.59;80.40
55733;BME280;41637;52.364;9.910;2023-05-24T06:04:38;101399.64;;;10.67;79.36
55733;BME280;41637;52.364;9.910;2023-05-24T06:07:05;101401.48;;;10.68;79.21
55733;BME280;41637;52.364;9.910;2023-05-24T06:09:31;101407.64;;;10.61;79.46
55733;BME280;41637;52.364;9.910;2023-05-24T06:11:58;101408.98;;;10.55;79.46
55733;BME280;41637;52.364;9.910;2023-05-24T06:14:25;101408.21;;;10.56;79.85
55733;BME280;41637;52.364;9.910;2023-05-24T06:16:52;101410.48;;;10.59;79.33
55733;BME280;41637;52.364;9.910;2023-05-24T06:19:22;101409.94;;;10.63;78.91
55733;BME280;41637;52.364;9.910;2023-05-24T06:21:49;101406.85;;;10.71;78.26
55733;BME280;41637;52.364;9.910;2023-05-24T06:24:17;101402.02;;;10.83;78.61
55733;BME280;41637;52.364;9.910;2023-05-24T06:26:49;101400.48;;;10.90;78.38
55733;BME280;41637;52.364;9.910;2023-05-24T06:29:17;101397.23;;;10.92;78.50
55733;BME280;41637;52.364;9.910;2023-05-24T06:31:48;101398.94;;;10.94;78.11
55733;BME280;41637;52.364;9.910;2023-05-24T06:34:18;101394.79;;;11.02;78.22
55733;BME280;41637;52.364;9.910;2023-05-24T06:36:47;101397.41;;;11.13;78.19
55733;BME280;41637;52.364;9.910;2023-05-24T06:39:14;101396.88;;;11.26;77.62
55733;BME280;41637;52.364;9.910;2023-05-24T06:41:44;101398.96;;;11.23;76.38
55733;BME280;41637;52.364;9.910;2023-05-24T06:44:12;101416.66;;;11.25;76.43
55733;BME280;41637;52.364;9.910;2023-05-24T06:46:38;101409.73;;;11.28;75.88
55733;BME280;41637;52.364;9.910;2023-05-24T06:49:05;101415.61;;;11.28;76.36
55733;BME280;41637;52.364;9.910;2023-05-24T06:51:32;101412.98;;;11.28;76.53
55733;BME280;41637;52.364;9.910;2023-05-24T06:53:59;101418.86;;;11.27;76.22
55733;BME280;41637;52.364;9.910;2023-05-24T06:56:26;101420.48;;;11.31;76.00
55733;BME280;41637;52.364;9.910;2023-05-24T06:58:55;101413.50;;;11.34;76.44
55733;BME280;41637;52.364;9.910;2023-05-24T07:01:21;101424.81;;;11.43;75.81
55733;BME280;41637;52.364;9.910;2023-05-24T07:03:48;101422.15;;;11.41;75.31
55733;BME280;41637;52.364;9.910;2023-05-24T07:06:15;101425.88;;;11.43;75.40
55733;BME280;41637;52.364;9.910;2023-05-24T07:08:41;101431.52;;;11.46;75.10
55733;BME280;41637;52.364;9.910;2023-05-24T07:11:08;101431.19;;;11.57;74.54
55733;BME280;41637;52.364;9.910;2023-05-24T07:13:35;101426.08;;;11.69;73.64
55733;BME280;41637;52.364;9.910;2023-05-24T07:16:02;101430.70;;;11.89;73.35
55733;BME280;41637;52.364;9.910;2023-05-24T07:18:29;101429.23;;;12.13;72.52
55733;BME280;41637;52.364;9.910;2023-05-24T07:20:55;101430.22;;;12.20;71.65
55733;BME280;41637;52.364;9.910;2023-05-24T07:23:22;101428.89;;;12.19;71.55
55733;BME280;41637;52.364;9.910;2023-05-24T07:25:48;101438.30;;;12.16;71.12
55733;BME280;41637;52.364;9.910;2023-05-24T07:28:15;101439.73;;;12.16;71.73
55733;BME280;41637;52.364;9.910;2023-05-24T07:30:45;101446.46;;;12.13;72.32
55733;BME280;41637;52.364;9.910;2023-05-24T07:33:12;101446.76;;;12.00;72.43
55733;BME280;41637;52.364;9.910;2023-05-24T07:35:39;101454.79;;;11.81;72.69
55733;BME280;41637;52.364;9.910;2023-05-24T07:38:06;101451.20;;;11.65;73.34
55733;BME280;41637;52.364;9.910;2023-05-24T07:40:33;101458.46;;;11.58;74.01
55733;BME280;41637;52.364;9.910;2023-05-24T07:43:00;101456.24;;;11.49;74.48
55733;BME280;41637;52.364;9.910;2023-05-24T07:45:29;101451.23;;;11.51;74.55
55733;BME280;41637;52.364;9.910;2023-05-24T07:47:56;101453.38;;;11.56;74.26
55733;BME280;41637;52.364;9.910;2023-05-24T07:50:23;101451.95;;;11.59;74.31
55733;BME280;41637;52.364;9.910;2023-05-24T07:52:50;101453.38;;;11.66;74.11
55733;BME280;41637;52.364;9.910;2023-05-24T07:55:17;101460.52;;;11.71;73.78
55733;BME280;41637;52.364;9.910;2023-05-24T07:57:43;101462.59;;;11.69;73.35
55733;BME280;41637;52.364;9.910;2023-05-24T08:00:10;101462.02;;;11.75;73.35
55733;BME280;41637;52.364;9.910;2023-05-24T08:02:41;101456.61;;;11.91;73.13
55733;BME280;41637;52.364;9.910;2023-05-24T08:05:09;101457.85;;;11.99;72.90
55733;BME280;41637;52.364;9.910;2023-05-24T08:07:36;101457.30;;;12.01;72.71
55733;BME280;41637;52.364;9.910;2023-05-24T08:10:03;101463.67;;;11.98;73.35
55733;BME280;41637;52.364;9.910;2023-05-24T08:12:30;101465.05;;;11.93;74.65
55733;BME280;41637;52.364;9.910;2023-05-24T08:14:57;101469.99;;;11.80;77.38
55733;BME280;41637;52.364;9.910;2023-05-24T08:17:23;101469.54;;;11.64;80.16
55733;BME280;41637;52.364;9.910;2023-05-24T08:19:50;101468.96;;;11.49;81.42
55733;BME280;41637;52.364;9.910;2023-05-24T08:22:17;101466.26;;;11.30;82.61
55733;BME280;41637;52.364;9.910;2023-05-24T08:24:45;101474.28;;;11.12;83.60
55733;BME280;41637;52.364;9.910;2023-05-24T08:27:11;101472.15;;;10.96;83.54
55733;BME280;41637;52.364;9.910;2023-05-24T08:29:39;101470.48;;;10.87;84.27
55733;BME280;41637;52.364;9.910;2023-05-24T08:32:06;101470.21;;;10.83;85.03
55733;BME280;41637;52.364;9.910;2023-05-24T08:34:35;101474.25;;;10.80;85.44
55733;BME280;41637;52.364;9.910;2023-05-24T08:37:03;101479.96;;;10.81;85.42
55733;BME280;41637;52.364;9.910;2023-05-24T08:39:30;101484.65;;;10.71;85.15
55733;BME280;41637;52.364;9.910;2023-05-24T08:41:57;101485.17;;;10.66;85.58
55733;BME280;41637;52.364;9.910;2023-05-24T08:44:52;101485.96;;;10.71;85.93
55733;BME280;41637;52.364;9.910;2023-05-24T08:47:19;101482.42;;;10.77;85.92
55733;BME280;41637;52.364;9.910;2023-05-24T08:49:47;101485.69;;;10.84;86.12
55733;BME280;41637;52.364;9.910;2023-05-24T08:52:14;101488.72;;;10.94;86.09
55733;BME280;41637;52.364;9.910;2023-05-24T08:54:41;101491.94;;;11.12;85.99
55733;BME280;41637;52.364;9.910;2023-05-24T08:57:09;101493.69;;;11.26;86.05
55733;BME280;41637;52.364;9.910;2023-05-24T08:59:39;101500.55;;;11.21;84.96
55733;BME280;41637;52.364;9.910;2023-05-24T09:02:11;101501.94;;;11.13;85.19
55733;BME280;41637;52.364;9.910;2023-05-24T09:04:40;101500.05;;;11.06;85.32
55733;BME280;41637;52.364;9.910;2023-05-24T09:07:11;101501.17;;;11.07;86.22
55733;BME280;41637;52.364;9.910;2023-05-24T09:09:46;101502.73;;;11.05;86.16
55733;BME280;41637;52.364;9.910;2023-05-24T09:12:17;101502.83;;;11.07;86.35
55733;BME280;41637;52.364;9.910;2023-05-24T09:15:03;101504.21;;;11.19;86.52
55733;BME280;41637;52.364;9.910;2023-05-24T09:17:30;101505.44;;;11.32;86.16
55733;BME280;41637;52.364;9.910;2023-05-24T09:19:59;101505.72;;;11.45;85.08
55733;BME280;41637;52.364;9.910;2023-05-24T09:22:26;101500.85;;;11.64;84.78
55733;BME280;41637;52.364;9.910;2023-05-24T09:24:59;101501.93;;;11.81;83.79
55733;BME280;41637;52.364;9.910;2023-05-24T09:27:26;101503.19;;;11.82;82.74
55733;BME280;41637;52.364;9.910;2023-05-24T09:29:54;101502.31;;;11.94;83.36
55733;BME280;41637;52.364;9.910;2023-05-24T09:32:22;101503.77;;;12.09;82.70
55733;BME280;41637;52.364;9.910;2023-05-24T09:34:51;101504.84;;;12.19;82.09
55733;BME280;41637;52.364;9.910;2023-05-24T09:37:22;101508.98;;;12.23;81.31
55733;BME280;41637;52.364;9.910;2023-05-24T09:39:57;101506.48;;;12.16;80.65
55733;BME280;41637;52.364;9.910;2023-05-24T09:42:24;101508.66;;;12.21;81.17
55733;BME280;41637;52.364;9.910;2023-05-24T09:45:07;101505.83;;;12.29;81.17
55733;BME280;41637;52.364;9.910;2023-05-24T09:47:41;101507.48;;;12.52;81.45
55733;BME280;41637;52.364;9.910;2023-05-24T09:50:13;101504.02;;;12.64;80.06
55733;BME280;41637;52.364;9.910;2023-05-24T09:52:40;101506.45;;;12.64;79.31
55733;BME280;41637;52.364;9.910;2023-05-24T09:55:18;101508.89;;;12.70;79.06
55733;BME280;41637;52.364;9.910;2023-05-24T09:57:50;101503.45;;;12.66;78.47
55733;BME280;41637;52.364;9.910;2023-05-24T10:00:24;101500.63;;;12.62;79.34
55733;BME280;41637;52.364;9.910;2023-05-24T10:03:04;101505.75;;;12.58;79.20
55733;BME280;41637;52.364;9.910;2023-05-24T10:05:37;101504.77;;;12.51;79.62
55733;BME280;41637;52.364;9.910;2023-05-24T10:08:04;101505.06;;;12.53;80.37
55733;BME280;41637;52.364;9.910;2023-05-24T10:10:32;101504.73;;;12.59;80.65
55733;BME280;41637;52.364;9.910;2023-05-24T10:13:00;101499.33;;;12.65;80.32
55733;BME280;41637;52.364;9.910;2023-05-24T10:15:27;101507.97;;;12.65;79.42
55733;BME280;41637;52.364;9.910;2023-05-24T10:17:55;101506.80;;;12.53;78.63
55733;BME280;41637;52.364;9.910;2023-05-24T10:20:23;101504.16;;;12.46;78.89
55733;BME280;41637;52.364;9.910;2023-05-24T10:22:59;101508.33;;;12.31;79.13
55733;BME280;41637;52.364;9.910;2023-05-24T10:25:32;101514.67;;;12.16;79.68
55733;BME280;41637;52.364;9.910;2023-05-24T10:28:09;101515.96;;;12.12;81.03
55733;BME280;41637;52.364;9.910;2023-05-24T10:33:23;101521.91;;;12.05;83.53
55733;BME280;41637;52.364;9.910;2023-05-24T10:35:51;101518.59;;;12.05;84.03
55733;BME280;41637;52.364;9.910;2023-05-24T10:38:22;101523.09;;;12.06;84.41
55733;BME280;41637;52.364;9.910;2023-05-24T10:40:49;101525.70;;;12.05;84.56
55733;BME280;41637;52.364;9.910;2023-05-24T10:43:16;101522.95;;;11.95;84.79
55733;BME280;41637;52.364;9.910;2023-05-24T10:45:48;101521.70;;;11.87;85.40
55733;BME280;41637;52.364;9.910;2023-05-24T10:50:42;101522.94;;;11.85;86.45
55733;BME280;41637;52.364;9.910;2023-05-24T10:53:15;101522.18;;;11.91;86.18
55733;BME280;41637;52.364;9.910;2023-05-24T10:58:43;101520.70;;;12.00;85.72
55733;BME280;41637;52.364;9.910;2023-05-24T11:01:31;101522.55;;;12.12;85.75
55733;BME280;41637;52.364;9.910;2023-05-24T11:04:09;101526.14;;;12.17;85.19
55733;BME280;41637;52.364;9.910;2023-05-24T11:07:02;101523.26;;;12.19;84.32
55733;BME280;41637;52.364;9.910;2023-05-24T11:09:30;101517.30;;;12.15;84.69
55733;BME280;41637;52.364;9.910;2023-05-24T11:12:07;101523.38;;;12.13;84.63
55733;BME280;41637;52.364;9.910;2023-05-24T11:14:39;101518.39;;;12.13;84.09
55733;BME280;41637;52.364;9.910;2023-05-24T11:17:06;101523.19;;;12.18;84.55
55733;BME280;41637;52.364;9.910;2023-05-24T11:19:34;101523.13;;;12.22;84.88
55733;BME280;41637;52.364;9.910;2023-05-24T11:22:03;101526.45;;;12.26;84.51
55733;BME280;41637;52.364;9.910;2023-05-24T11:24:32;101526.67;;;12.27;84.44
55733;BME280;41637;52.364;9.910;2023-05-24T11:26:59;101528.67;;;12.25;84.68
55733;BME280;41637;52.364;9.910;2023-05-24T11:29:28;101527.31;;;12.19;84.00
55733;BME280;41637;52.364;9.910;2023-05-24T11:31:57;101525.77;;;12.15;84.63
55733;BME280;41637;52.364;9.910;2023-05-24T11:34:27;101525.30;;;12.10;84.83
55733;BME280;41637;52.364;9.910;2023-05-24T11:36:55;101522.80;;;12.10;84.96
55733;BME280;41637;52.364;9.910;2023-05-24T11:39:22;101527.99;;;12.06;85.06
55733;BME280;41637;52.364;9.910;2023-05-24T11:41:53;101530.19;;;12.02;84.92
55733;BME280;41637;52.364;9.910;2023-05-24T11:44:20;101532.07;;;12.00;85.67
55733;BME280;41637;52.364;9.910;2023-05-24T11:46:47;101532.86;;;11.97;86.14
55733;BME280;41637;52.364;9.910;2023-05-24T11:49:15;101534.42;;;11.97;86.16
55733;BME280;41637;52.364;9.910;2023-05-24T11:51:42;101534.80;;;11.89;86.29
55733;BME280;41637;52.364;9.910;2023-05-24T11:54:09;101535.27;;;11.86;86.31
55733;BME280;41637;52.364;9.910;2023-05-24T11:56:36;101535.35;;;11.87;86.41
55733;BME280;41637;52.364;9.910;2023-05-24T11:59:24;101535.11;;;11.91;86.05
55733;BME280;41637;52.364;9.910;2023-05-24T12:02:04;101533.98;;;12.00;85.92
55733;BME280;41637;52.364;9.910;2023-05-24T12:04:32;101539.99;;;12.05;85.65
55733;BME280;41637;52.364;9.910;2023-05-24T12:07:01;101538.95;;;12.15;85.14
55733;BME280;41637;52.364;9.910;2023-05-24T12:09:28;101532.80;;;12.21;84.76
55733;BME280;41637;52.364;9.910;2023-05-24T12:11:55;101529.23;;;12.30;84.44
55733;BME280;41637;52.364;9.910;2023-05-24T12:14:26;101527.26;;;12.40;84.21
55733;BME280;41637;52.364;9.910;2023-05-24T12:16:54;101532.34;;;12.55;83.69
55733;BME280;41637;52.364;9.910;2023-05-24T12:19:22;101534.76;;;12.70;83.19
55733;BME280;41637;52.364;9.910;2023-05-24T12:22:00;101532.89;;;12.87;82.72
55733;BME280;41637;52.364;9.910;2023-05-24T12:24:30;101532.38;;;12.97;82.08
55733;BME280;41637;52.364;9.910;2023-05-24T12:27:02;101533.23;;;13.01;81.48
55733;BME280;41637;52.364;9.910;2023-05-24T12:29:36;101532.45;;;13.02;81.70
55733;BME280;41637;52.364;9.910;2023-05-24T12:32:05;101532.36;;;13.01;81.47
55733;BME280;41637;52.364;9.910;2023-05-24T12:34:39;101533.30;;;13.02;81.53
55733;BME280;41637;52.364;9.910;2023-05-24T12:37:07;101534.36;;;13.02;81.53
55733;BME280;41637;52.364;9.910;2023-05-24T12:39:35;101528.98;;;13.11;81.90
55733;BME280;41637;52.364;9.910;2023-05-24T12:42:03;101527.05;;;13.22;81.84
55733;BME280;41637;52.364;9.910;2023-05-24T12:44:34;101527.44;;;13.40;81.45
55733;BME280;41637;52.364;9.910;2023-05-24T12:47:03;101522.55;;;13.67;80.51
55733;BME280;41637;52.364;9.910;2023-05-24T12:49:30;101518.47;;;14.24;78.74
55733;BME280;41637;52.364;9.910;2023-05-24T12:51:57;101511.52;;;15.23;75.55
55733;BME280;41637;52.364;9.910;2023-05-24T12:54:25;101509.36;;;16.38;71.92
55733;BME280;41637;52.364;9.910;2023-05-24T12:56:54;101512.20;;;16.96;68.30
55733;BME280;41637;52.364;9.910;2023-05-24T12:59:22;101505.88;;;17.34;66.07
55733;BME280;41637;52.364;9.910;2023-05-24T13:01:49;101508.39;;;17.54;64.12
55733;BME280;41637;52.364;9.910;2023-05-24T13:04:19;101506.95;;;18.23;63.28
55733;BME280;41637;52.364;9.910;2023-05-24T13:06:47;101503.34;;;18.66;61.18
55733;BME280;41637;52.364;9.910;2023-05-24T13:09:14;101501.73;;;19.25;59.47
55733;BME280;41637;52.364;9.910;2023-05-24T13:11:44;101505.04;;;19.36;56.15
55733;BME280;41637;52.364;9.910;2023-05-24T13:14:11;101504.19;;;19.11;55.30
55733;BME280;41637;52.364;9.910;2023-05-24T13:16:38;101497.12;;;19.28;56.99
55733;BME280;41637;52.364;9.910;2023-05-24T13:19:04;101498.75;;;19.54;55.10
55733;BME280;41637;52.364;9.910;2023-05-24T13:21:31;101499.40;;;19.65;54.53
55733;BME280;41637;52.364;9.910;2023-05-24T13:23:57;101494.95;;;19.61;54.30